sensor_id;sensor_type;location;lat;lon;timestamp;pressure;altitude;pressure_sealevel;temperature;humidity
44988;BME280;35735;52.226;21.254;2023-04-02T00:15:29;99311.66;;;7.09;100.00
44988;BME280;35735;52.226;21.254;2023-04-02T00:20:39;99322.37;;;7.10;100.00
44988;BME280;35735;52.226;21.254;2023-04-02T00:25:43;99327.75;;;7.04;100.00
44988;BME280;35735;52.226;21.254;2023-04-02T00:30:46;99325.97;;;7.00;100.00
44988;BME280;35735;52.226;21.254;2023-04-02T00:35:49;99327.75;;;7.04;100.00
44988;BME280;35735;52.226;21.254;2023-04-02T00:40:51;99338.50;;;7.04;100.00
44988;BME280;35735;52.226;21.254;2023-04-02T00:45:59;99333.13;;;6.98;100.00
44988;BME280;35735;52.226;21.254;2023-04-02T00:56:40;99339.38;;;7.01;100.00
44988;BME280;35735;52.226;21.254;2023-04-02T01:01:43;99351.91;;;7.02;100.00
44988;BME280;35735;52.226;21.254;2023-04-02T01:06:44;99354.59;;;6.95;100.00
44988;BME280;35735;52.226;21.254;2023-04-02T01:17:40;99365.34;;;6.89;100.00
44988;BME280;35735;52.226;21.254;2023-04-02T01:22:59;99363.56;;;6.84;100.00
44988;BME280;35735;52.226;21.254;2023-04-02T01:28:21;99362.69;;;6.76;100.00
44988;BME280;35735;52.226;21.254;2023-04-02T01:33:29;99374.31;;;6.66;100.00
44988;BME280;35735;52.226;21.254;2023-04-02T01:38:39;99378.78;;;6.56;100.00
44988;BME280;35735;52.226;21.254;2023-04-02T01:43:58;99378.78;;;6.53;100.00
44988;BME280;35735;52.226;21.254;2023-04-02T01:49:24;99382.38;;;6.51;100.00
44988;BME280;35735;52.226;21.254;2023-04-02T01:54:24;99385.06;;;6.54;100.00
44988;BME280;35735;52.226;21.254;2023-04-02T01:59:25;99391.31;;;6.54;100.00
44988;BME280;35735;52.226;21.254;2023-04-02T02:04:26;99395.78;;;6.51;100.00
44988;BME280;35735;52.226;21.254;2023-04-02T02:09:31;99402.91;;;6.39;100.00
44988;BME280;35735;52.226;21.254;2023-04-02T02:14:33;99406.50;;;6.38;100.00
44988;BME280;35735;52.226;21.254;2023-04-02T02:19:37;99418.12;;;6.37;100.00
44988;BME280;35735;52.226;21.254;2023-04-02T02:24:41;99420.78;;;6.37;100.00
44988;BME280;35735;52.226;21.254;2023-04-02T02:29:42;99418.97;;;6.33;100.00
44988;BME280;35735;52.226;21.254;2023-04-02T02:34:48;99429.72;;;6.27;100.00
44988;BME280;35735;52.226;21.254;2023-04-02T02:39:56;99425.22;;;6.14;100.00
44988;BME280;35735;52.226;21.254;2023-04-02T02:45:00;99437.72;;;6.05;100.00
44988;BME280;35735;52.226;21.254;2023-04-02T02:50:06;99450.22;;;6.02;100.00
44988;BME280;35735;52.226;21.254;2023-04-02T02:55:14;99447.50;;;5.97;100.00
44988;BME280;35735;52.226;21.254;2023-04-02T03:00:18;99450.13;;;5.94;100.00
44988;BME280;35735;52.226;21.254;2023-04-02T03:05:23;99452.87;;;5.97;100.00
44988;BME280;35735;52.226;21.254;2023-04-02T03:10:54;99460.00;;;6.03;100.00
44988;BME280;35735;52.226;21.254;2023-04-02T03:16:06;99463.59;;;5.99;100.00
44988;BME280;35735;52.226;21.254;2023-04-02T03:22:04;99472.50;;;5.96;100.00
44988;BME280;35735;52.226;21.254;2023-04-02T03:26:43;99472.50;;;5.99;100.00
44988;BME280;35735;52.226;21.254;2023-04-02T03:32:05;99485.88;;;5.96;100.00
44988;BME280;35735;52.226;21.254;2023-04-02T03:37:24;99488.59;;;6.02;100.00
44988;BME280;35735;52.226;21.254;2023-04-02T03:43:25;99489.47;;;6.03;100.00
44988;BME280;35735;52.226;21.254;2023-04-02T03:48:37;99504.69;;;6.08;100.00
44988;BME280;35735;52.226;21.254;2023-04-02T03:53:41;99507.38;;;6.10;100.00
44988;BME280;35735;52.226;21.254;2023-04-02T03:58:51;99521.63;;;6.04;100.00
44988;BME280;35735;52.226;21.254;2023-04-02T04:03:56;99529.59;;;5.92;100.00
44988;BME280;35735;52.226;21.254;2023-04-02T04:14:36;99539.34;;;5.78;100.00
44988;BME280;35735;52.226;21.254;2023-04-02T04:19:45;99546.50;;;5.80;100.00
44988;BME280;35735;52.226;21.254;2023-04-02T04:24:50;99556.28;;;5.80;100.00
44988;BME280;35735;52.226;21.254;2023-04-02T04:30:00;99560.72;;;5.73;100.00
44988;BME280;35735;52.226;21.254;2023-04-02T04:35:26;99566.09;;;5.70;100.00
44988;BME280;35735;52.226;21.254;2023-04-02T04:40:35;99573.16;;;5.60;100.00
44988;BME280;35735;52.226;21.254;2023-04-02T04:45:47;99581.16;;;5.57;100.00
44988;BME280;35735;52.226;21.254;2023-04-02T04:50:59;99577.59;;;5.56;100.00
44988;BME280;35735;52.226;21.254;2023-04-02T04:56:04;99585.59;;;5.53;100.00
44988;BME280;35735;52.226;21.254;2023-04-02T05:01:22;99588.28;;;5.55;100.00
44988;BME280;35735;52.226;21.254;2023-04-02T05:06:54;99610.59;;;5.55;100.00
44988;BME280;35735;52.226;21.254;2023-04-02T05:12:40;99606.97;;;5.49;100.00
44988;BME280;35735;52.226;21.254;2023-04-02T05:23:25;99629.22;;;5.38;100.00
44988;BME280;35735;52.226;21.254;2023-04-02T05:28:43;99642.50;;;5.29;100.00
44988;BME280;35735;52.226;21.254;2023-04-02T05:33:47;99650.44;;;5.20;100.00
44988;BME280;35735;52.226;21.254;2023-04-02T05:38:49;99653.09;;;5.17;100.00
44988;BME280;35735;52.226;21.254;2023-04-02T05:43:57;99652.19;;;5.15;100.00
44988;BME280;35735;52.226;21.254;2023-04-02T05:49:16;99674.44;;;5.12;100.00
44988;BME280;35735;52.226;21.254;2023-04-02T05:54:30;99680.72;;;5.13;100.00
44988;BME280;35735;52.226;21.254;2023-04-02T05:59:37;99688.72;;;5.14;100.00
44988;BME280;35735;52.226;21.254;2023-04-02T06:04:45;99693.16;;;5.11;100.00
44988;BME280;35735;52.226;21.254;2023-04-02T06:09:55;99698.50;;;5.11;100.00
44988;BME280;35735;52.226;21.254;2023-04-02T06:15:04;99708.28;;;5.09;100.00
44988;BME280;35735;52.226;21.254;2023-04-02T06:20:13;99705.53;;;4.99;100.00
44988;BME280;35735;52.226;21.254;2023-04-02T06:25:23;99716.16;;;4.93;100.00
44988;BME280;35735;52.226;21.254;2023-04-02T06:30:30;99725.03;;;4.92;100.00
44988;BME280;35735;52.226;21.254;2023-04-02T06:35:40;99735.66;;;4.83;100.00
44988;BME280;35735;52.226;21.254;2023-04-02T06:40:46;99753.44;;;4.81;100.00
44988;BME280;35735;52.226;21.254;2023-04-02T06:45:50;99751.53;;;4.72;100.00
44988;BME280;35735;52.226;21.254;2023-04-02T06:51:07;99756.84;;;4.66;100.00
44988;BME280;35735;52.226;21.254;2023-04-02T07:01:53;99752.25;;;4.59;100.00
44988;BME280;35735;52.226;21.254;2023-04-02T07:07:00;99764.69;;;4.55;100.00
44988;BME280;35735;52.226;21.254;2023-04-02T07:12:00;99773.56;;;4.53;100.00
44988;BME280;35735;52.226;21.254;2023-04-02T07:17:01;99785.13;;;4.52;100.00
44988;BME280;35735;52.226;21.254;2023-04-02T07:22:01;99780.59;;;4.44;100.00
44988;BME280;35735;52.226;21.254;2023-04-02T07:27:02;99794.75;;;4.40;100.00
44988;BME280;35735;52.226;21.254;2023-04-02T07:32:03;99805.44;;;4.40;100.00
44988;BME280;35735;52.226;21.254;2023-04-02T07:37:04;99817.06;;;4.44;100.00
44988;BME280;35735;52.226;21.254;2023-04-02T07:42:05;99822.59;;;4.55;100.00
44988;BME280;35735;52.226;21.254;2023-04-02T07:47:05;99825.28;;;4.56;100.00
44988;BME280;35735;52.226;21.254;2023-04-02T07:52:06;99830.75;;;4.64;100.00
44988;BME280;35735;52.226;21.254;2023-04-02T07:57:06;99841.56;;;4.72;100.00
44988;BME280;35735;52.226;21.254;2023-04-02T08:02:17;99840.59;;;4.67;100.00
44988;BME280;35735;52.226;21.254;2023-04-02T08:07:19;99845.19;;;4.77;100.00
44988;BME280;35735;52.226;21.254;2023-04-02T08:12:20;99845.22;;;4.78;100.00
44988;BME280;35735;52.226;21.254;2023-04-02T08:17:21;99854.97;;;4.75;100.00
44988;BME280;35735;52.226;21.254;2023-04-02T08:22:21;99847.75;;;4.71;100.00
44988;BME280;35735;52.226;21.254;2023-04-02T08:27:23;99854.78;;;4.64;100.00
44988;BME280;35735;52.226;21.254;2023-04-02T08:32:24;99878.87;;;4.66;100.00
44988;BME280;35735;52.226;21.254;2023-04-02T08:37:24;99884.19;;;4.64;100.00
44988;BME280;35735;52.226;21.254;2023-04-02T08:42:29;99874.41;;;4.63;100.00
44988;BME280;35735;52.226;21.254;2023-04-02T08:47:38;99899.50;;;4.73;100.00
44988;BME280;35735;52.226;21.254;2023-04-02T08:52:41;99895.13;;;4.78;100.00
44988;BME280;35735;52.226;21.254;2023-04-02T08:57:48;99901.34;;;4.78;100.00
44988;BME280;35735;52.226;21.254;2023-04-02T09:03:07;99912.91;;;4.77;100.00
44988;BME280;35735;52.226;21.254;2023-04-02T09:08:21;99930.06;;;4.90;100.00
44988;BME280;35735;52.226;21.254;2023-04-02T09:13:26;99942.63;;;4.97;100.00
44988;BME280;35735;52.226;21.254;2023-04-02T09:18:30;99937.38;;;5.04;100.00
44988;BME280;35735;52.226;21.254;2023-04-02T09:23:31;99934.78;;;5.08;100.00
44988;BME280;35735;52.226;21.254;2023-04-02T09:28:34;99950.91;;;5.14;100.00
44988;BME280;35735;52.226;21.254;2023-04-02T09:33:46;99958.97;;;5.17;100.00
44988;BME280;35735;52.226;21.254;2023-04-02T09:39:02;99952.75;;;5.18;100.00
44988;BME280;35735;52.226;21.254;2023-04-02T09:49:26;99952.63;;;5.09;100.00
44988;BME280;35735;52.226;21.254;2023-04-02T09:54:31;99960.72;;;5.14;100.00
44988;BME280;35735;52.226;21.254;2023-04-02T09:59:31;99966.88;;;5.08;100.00
44988;BME280;35735;52.226;21.254;2023-04-02T10:04:39;99975.63;;;4.96;100.00
44988;BME280;35735;52.226;21.254;2023-04-02T10:09:45;99980.03;;;4.94;100.00
44988;BME280;35735;52.226;21.254;2023-04-02T10:14:59;99988.06;;;4.94;100.00
44988;BME280;35735;52.226;21.254;2023-04-02T10:20:17;99991.53;;;4.89;100.00
44988;BME280;35735;52.226;21.254;2023-04-02T10:25:20;100001.34;;;4.88;100.00
44988;BME280;35735;52.226;21.254;2023-04-02T10:30:39;100012.81;;;4.82;100.00
44988;BME280;35735;52.226;21.254;2023-04-02T10:36:01;100014.66;;;4.85;100.00
44988;BME280;35735;52.226;21.254;2023-04-02T10:57:25;100038.69;;;4.82;100.00
44988;BME280;35735;52.226;21.254;2023-04-02T11:02:53;100042.22;;;4.81;100.00
44988;BME280;35735;52.226;21.254;2023-04-02T11:08:03;100047.72;;;4.90;100.00
44988;BME280;35735;52.226;21.254;2023-04-02T11:29:30;100090.25;;;4.75;100.00
44988;BME280;35735;52.226;21.254;2023-04-02T11:39:52;100101.03;;;4.81;100.00
44988;BME280;35735;52.226;21.254;2023-04-02T11:44:55;100100.06;;;4.76;100.00
44988;BME280;35735;52.226;21.254;2023-04-02T11:50:00;100115.31;;;4.80;100.00
44988;BME280;35735;52.226;21.254;2023-04-02T11:55:19;100118.97;;;4.85;100.00
44988;BME280;35735;52.226;21.254;2023-04-02T12:06:21;100125.19;;;4.86;100.00
44988;BME280;35735;52.226;21.254;2023-04-02T12:11:40;100143.81;;;4.81;100.00
44988;BME280;35735;52.226;21.254;2023-04-02T12:16:41;100156.47;;;4.88;100.00
44988;BME280;35735;52.226;21.254;2023-04-02T12:21:44;100148.53;;;4.93;100.00
44988;BME280;35735;52.226;21.254;2023-04-02T12:26:45;100162.84;;;4.96;100.00
44988;BME280;35735;52.226;21.254;2023-04-02T12:31:46;100157.50;;;4.96;100.00
44988;BME280;35735;52.226;21.254;2023-04-02T12:36:56;100168.25;;;4.98;100.00
44988;BME280;35735;52.226;21.254;2023-04-02T12:42:00;100170.13;;;5.05;100.00
44988;BME280;35735;52.226;21.254;2023-04-02T12:47:03;100171.97;;;5.08;100.00
44988;BME280;35735;52.226;21.254;2023-04-02T12:52:09;100176.31;;;5.03;100.00
44988;BME280;35735;52.226;21.254;2023-04-02T13:02:27;100177.16;;;4.98;100.00
44988;BME280;35735;52.226;21.254;2023-04-02T13:07:31;100186.00;;;4.96;100.00
44988;BME280;35735;52.226;21.254;2023-04-02T13:12:39;100201.28;;;5.01;100.00
44988;BME280;35735;52.226;21.254;2023-04-02T13:17:42;100201.34;;;5.05;100.00
44988;BME280;35735;52.226;21.254;2023-04-02T13:22:44;100190.59;;;5.01;100.00
44988;BME280;35735;52.226;21.254;2023-04-02T13:27:45;100213.78;;;5.03;100.00
44988;BME280;35735;52.226;21.254;2023-04-02T13:32:46;100229.81;;;5.03;100.00
44988;BME280;35735;52.226;21.254;2023-04-02T13:37:47;100228.84;;;4.97;100.00
44988;BME280;35735;52.226;21.254;2023-04-02T13:42:48;100234.06;;;4.90;100.00
44988;BME280;35735;52.226;21.254;2023-04-02T13:47:49;100232.09;;;4.82;100.00
44988;BME280;35735;52.226;21.254;2023-04-02T13:52:50;100224.72;;;4.71;100.00
44988;BME280;35735;52.226;21.254;2023-04-02T13:57:51;100240.72;;;4.66;100.00
44988;BME280;35735;52.226;21.254;2023-04-02T14:02:57;100252.22;;;4.63;100.00
44988;BME280;35735;52.226;21.254;2023-04-02T14:08:16;100243.28;;;4.61;100.00
44988;BME280;35735;52.226;21.254;2023-04-02T14:13:53;100260.31;;;4.67;100.00
44988;BME280;35735;52.226;21.254;2023-04-02T14:24:47;100268.09;;;4.56;100.00
44988;BME280;35735;52.226;21.254;2023-04-02T14:30:14;100266.25;;;4.53;100.00
44988;BME280;35735;52.226;21.254;2023-04-02T14:35:26;100264.31;;;4.44;100.00
44988;BME280;35735;52.226;21.254;2023-04-02T14:40:53;100282.03;;;4.42;100.00
44988;BME280;35735;52.226;21.254;2023-04-02T14:46:00;100303.44;;;4.42;100.00
44988;BME280;35735;52.226;21.254;2023-04-02T14:56:27;100312.25;;;4.38;100.00
44988;BME280;35735;52.226;21.254;2023-04-02T15:01:35;100314.00;;;4.36;100.00
44988;BME280;35735;52.226;21.254;2023-04-02T15:06:41;100319.16;;;4.29;100.00
44988;BME280;35735;52.226;21.254;2023-04-02T15:11:48;100324.22;;;4.16;100.00
44988;BME280;35735;52.226;21.254;2023-04-02T15:16:51;100328.50;;;4.10;100.00
44988;BME280;35735;52.226;21.254;2023-04-02T15:38:37;100375.34;;;3.97;100.00
44988;BME280;35735;52.226;21.254;2023-04-02T15:44:05;100376.97;;;3.90;100.00
44988;BME280;35735;52.226;21.254;2023-04-02T15:54:49;100384.62;;;3.76;100.00
44988;BME280;35735;52.226;21.254;2023-04-02T16:10:52;100412.53;;;3.57;100.00
44988;BME280;35735;52.226;21.254;2023-04-02T16:16:10;100416.72;;;3.47;100.00
44988;BME280;35735;52.226;21.254;2023-04-02T16:21:20;100433.56;;;3.45;100.00
44988;BME280;35735;52.226;21.254;2023-04-02T16:42:40;100459.91;;;3.32;100.00
44988;BME280;35735;52.226;21.254;2023-04-02T16:48:14;100462.41;;;3.28;100.00
44988;BME280;35735;52.226;21.254;2023-04-02T16:53:31;100478.44;;;3.28;100.00
44988;BME280;35735;52.226;21.254;2023-04-02T16:58:53;100488.25;;;3.30;100.00
44988;BME280;35735;52.226;21.254;2023-04-02T17:10:19;100500.81;;;3.33;100.00
44988;BME280;35735;52.226;21.254;2023-04-02T17:15:37;100503.47;;;3.33;100.00
44988;BME280;35735;52.226;21.254;2023-04-02T17:20:40;100498.88;;;3.29;100.00
44988;BME280;35735;52.226;21.254;2023-04-02T17:25:47;100507.91;;;3.32;100.00
44988;BME280;35735;52.226;21.254;2023-04-02T17:31:00;100519.47;;;3.33;100.00
44988;BME280;35735;52.226;21.254;2023-04-02T17:52:50;100551.03;;;3.46;100.00
44988;BME280;35735;52.226;21.254;2023-04-02T17:58:00;100559.13;;;3.49;100.00
44988;BME280;35735;52.226;21.254;2023-04-02T18:08:38;100556.00;;;3.36;100.00
44988;BME280;35735;52.226;21.254;2023-04-02T18:30:56;100592.50;;;3.08;100.00
44988;BME280;35735;52.226;21.254;2023-04-02T18:52:50;100610.41;;;3.12;100.00
44988;BME280;35735;52.226;21.254;2023-04-02T18:57:59;100611.50;;;3.19;100.00
44988;BME280;35735;52.226;21.254;2023-04-02T19:03:30;100623.09;;;3.19;100.00
44988;BME280;35735;52.226;21.254;2023-04-02T19:08:48;100616.94;;;3.22;100.00
44988;BME280;35735;52.226;21.254;2023-04-02T19:14:15;100626.87;;;3.26;100.00
44988;BME280;35735;52.226;21.254;2023-04-02T19:19:20;100629.81;;;3.35;100.00
44988;BME280;35735;52.226;21.254;2023-04-02T19:24:34;100637.16;;;3.42;100.00
44988;BME280;35735;52.226;21.254;2023-04-02T19:30:24;100635.66;;;3.50;100.00
44988;BME280;35735;52.226;21.254;2023-04-02T19:35:52;100647.19;;;3.49;100.00
44988;BME280;35735;52.226;21.254;2023-04-02T19:41:23;100651.22;;;3.37;100.00
44988;BME280;35735;52.226;21.254;2023-04-02T19:46:26;100650.16;;;3.31;100.00
44988;BME280;35735;52.226;21.254;2023-04-02T19:51:27;100650.16;;;3.31;100.00
44988;BME280;35735;52.226;21.254;2023-04-02T19:56:29;100645.62;;;3.29;100.00
44988;BME280;35735;52.226;21.254;2023-04-02T20:01:29;100654.50;;;3.28;100.00
44988;BME280;35735;52.226;21.254;2023-04-02T20:06:31;100644.84;;;3.31;100.00
44988;BME280;35735;52.226;21.254;2023-04-02T20:11:34;100649.56;;;3.40;100.00
44988;BME280;35735;52.226;21.254;2023-04-02T20:16:35;100665.06;;;3.52;100.00
44988;BME280;35735;52.226;21.254;2023-04-02T20:21:36;100667.16;;;3.62;100.00
44988;BME280;35735;52.226;21.254;2023-04-02T20:26:36;100666.66;;;3.74;100.00
44988;BME280;35735;52.226;21.254;2023-04-02T20:31:37;100666.84;;;3.80;100.00
44988;BME280;35735;52.226;21.254;2023-04-02T20:36:37;100673.12;;;3.82;100.00
44988;BME280;35735;52.226;21.254;2023-04-02T20:41:38;100674.91;;;3.82;100.00
44988;BME280;35735;52.226;21.254;2023-04-02T20:46:39;100682.97;;;3.83;100.00
44988;BME280;35735;52.226;21.254;2023-04-02T20:51:40;100685.91;;;3.91;100.00
44988;BME280;35735;52.226;21.254;2023-04-02T20:56:40;100694.13;;;3.99;100.00
44988;BME280;35735;52.226;21.254;2023-04-02T21:01:41;100699.31;;;3.93;100.00
44988;BME280;35735;52.226;21.254;2023-04-02T21:06:42;100700.25;;;3.95;100.00
44988;BME280;35735;52.226;21.254;2023-04-02T21:11:43;100707.22;;;3.89;100.00
44988;BME280;35735;52.226;21.254;2023-04-02T21:16:44;100708.81;;;3.84;100.00
44988;BME280;35735;52.226;21.254;2023-04-02T21:21:45;100709.56;;;3.80;100.00
44988;BME280;35735;52.226;21.254;2023-04-02T21:26:45;100715.63;;;3.75;100.00
44988;BME280;35735;52.226;21.254;2023-04-02T21:31:46;100714.69;;;3.74;100.00
44988;BME280;35735;52.226;21.254;2023-04-02T21:36:47;100717.25;;;3.69;100.00
44988;BME280;35735;52.226;21.254;2023-04-02T21:41:50;100720.50;;;3.61;100.00
44988;BME280;35735;52.226;21.254;2023-04-02T21:46:54;100725.56;;;3.51;100.00
44988;BME280;35735;52.226;21.254;2023-04-02T21:51:54;100733.22;;;3.42;100.00
44988;BME280;35735;52.226;21.254;2023-04-02T21:56:55;100737.41;;;3.34;100.00
44988;BME280;35735;52.226;21.254;2023-04-02T22:01:58;100733.62;;;3.27;100.00
44988;BME280;35735;52.226;21.254;2023-04-02T22:06:58;100741.38;;;3.20;100.00
44988;BME280;35735;52.226;21.254;2023-04-02T22:11:59;100740.47;;;3.19;100.00
44988;BME280;35735;52.226;21.254;2023-04-02T22:17:00;100751.03;;;3.16;100.00
44988;BME280;35735;52.226;21.254;2023-04-02T22:22:00;100760.72;;;3.14;100.00
44988;BME280;35735;52.226;21.254;2023-04-02T22:27:04;100773.03;;;3.10;100.00
44988;BME280;35735;52.226;21.254;2023-04-02T22:32:04;100767.50;;;3.04;100.00
44988;BME280;35735;52.226;21.254;2023-04-02T22:37:05;100783.41;;;3.01;100.00
44988;BME280;35735;52.226;21.254;2023-04-02T22:42:05;100777.81;;;2.95;100.00
44988;BME280;35735;52.226;21.254;2023-04-02T22:47:06;100795.53;;;2.93;100.00
44988;BME280;35735;52.226;21.254;2023-04-02T22:52:07;100791.78;;;2.88;100.00
44988;BME280;35735;52.226;21.254;2023-04-02T22:57:07;100799.50;;;2.80;100.00
44988;BME280;35735;52.226;21.254;2023-04-02T23:02:08;100792.00;;;2.70;99.36
44988;BME280;35735;52.226;21.254;2023-04-02T23:07:08;100792.56;;;2.61;99.65
44988;BME280;35735;52.226;21.254;2023-04-02T23:12:09;100797.66;;;2.55;99.61
44988;BME280;35735;52.226;21.254;2023-04-02T23:17:10;100800.94;;;2.48;99.21
44988;BME280;35735;52.226;21.254;2023-04-02T23:22:10;100802.66;;;2.46;99.49
44988;BME280;35735;52.226;21.254;2023-04-02T23:27:11;100806.94;;;2.42;98.71
44988;BME280;35735;52.226;21.254;2023-04-02T23:32:11;100807.47;;;2.33;98.55
44988;BME280;35735;52.226;21.254;2023-04-02T23:37:12;100809.97;;;2.29;98.66
44988;BME280;35735;52.226;21.254;2023-04-02T23:42:12;100814.13;;;2.22;98.74
44988;BME280;35735;52.226;21.254;2023-04-02T23:47:13;100823.47;;;2.11;98.10
44988;BME280;35735;52.226;21.254;2023-04-02T23:52:14;100825.88;;;2.04;97.99
44988;BME280;35735;52.226;21.254;2023-04-02T23:57:14;100830.94;;;1.98;97.88
